createdAt,value
2022-12-25T00:01:36.529Z,23.92
2022-12-25T00:04:03.919Z,21.73
2022-12-25T00:06:31.392Z,21.92
2022-12-25T00:08:58.699Z,23.27
2022-12-25T00:11:26.080Z,23.17
2022-12-25T00:13:53.311Z,22.25
2022-12-25T00:16:22.818Z,20.80
2022-12-25T00:18:51.228Z,20.58
2022-12-25T00:21:18.817Z,20.77
2022-12-25T00:23:46.275Z,22.77
2022-12-25T00:26:14.705Z,22.83
2022-12-25T00:28:42.057Z,18.75
2022-12-25T00:31:10.730Z,21.42
2022-12-25T00:33:38.940Z,22.73
2022-12-25T00:36:09.980Z,22.33
2022-12-25T00:38:38.118Z,21.50
2022-12-25T00:41:07.561Z,19.52
2022-12-25T00:43:34.996Z,22.13
2022-12-25T00:46:03.678Z,21.00
2022-12-25T00:48:31.461Z,19.00
2022-12-25T00:51:00.036Z,20.20
2022-12-25T00:53:28.012Z,20.40
2022-12-25T00:55:56.427Z,20.20
2022-12-25T00:58:23.853Z,19.60
2022-12-25T01:00:51.340Z,20.10
2022-12-25T01:03:19.185Z,22.92
2022-12-25T01:05:55.005Z,22.13
2022-12-25T01:08:22.267Z,22.05
2022-12-25T01:11:03.498Z,20.48
2022-12-25T01:13:30.928Z,22.85
2022-12-25T01:15:58.343Z,24.88
2022-12-25T01:18:25.842Z,22.15
2022-12-25T01:20:53.175Z,24.40
2022-12-25T01:23:20.484Z,18.83
2022-12-25T01:25:47.718Z,20.38
2022-12-25T01:28:16.212Z,18.60
2022-12-25T01:30:48.894Z,22.40
2022-12-25T01:33:16.207Z,20.42
2022-12-25T01:35:43.572Z,20.30
2022-12-25T01:38:10.818Z,21.13
2022-12-25T01:40:38.140Z,20.17
2022-12-25T01:43:05.647Z,20.15
2022-12-25T01:45:34.852Z,19.73
2022-12-25T01:48:03.953Z,21.88
2022-12-25T01:50:31.560Z,22.67
2022-12-25T01:52:58.964Z,19.75
2022-12-25T01:55:27.104Z,20.60
2022-12-25T01:57:55.637Z,20.40
2022-12-25T02:00:22.968Z,21.63
2022-12-25T02:02:50.575Z,20.98
2022-12-25T02:05:26.919Z,20.17
2022-12-25T02:07:54.471Z,20.15
2022-12-25T02:10:22.037Z,21.05
2022-12-25T02:12:49.552Z,21.45
2022-12-25T02:15:19.068Z,23.17
2022-12-25T02:17:50.626Z,20.70
2022-12-25T02:20:26.969Z,24.13
2022-12-25T02:23:12.897Z,20.02
2022-12-25T02:26:05.251Z,26.00
2022-12-25T02:28:45.575Z,22.58
2022-12-25T02:31:19.304Z,21.60
2022-12-25T02:34:04.979Z,22.15
2022-12-25T02:36:38.538Z,23.45
2022-12-25T02:39:28.412Z,21.20
2022-12-25T02:41:58.697Z,21.92
2022-12-25T02:44:45.302Z,23.50
2022-12-25T02:47:31.081Z,23.00
2022-12-25T02:50:37.265Z,24.67
2022-12-25T02:53:25.839Z,21.63
2022-12-25T02:56:12.276Z,21.90
2022-12-25T02:58:59.683Z,23.13
2022-12-25T03:01:48.013Z,23.45
2022-12-25T03:04:35.927Z,24.88
2022-12-25T03:07:03.156Z,25.10
2022-12-25T03:09:53.353Z,23.70
2022-12-25T03:12:29.968Z,24.05
2022-12-25T03:15:16.189Z,23.85
2022-12-25T03:17:43.644Z,24.98
2022-12-25T03:20:29.582Z,23.25
2022-12-25T03:23:15.980Z,26.05
2022-12-25T03:26:01.973Z,27.98
2022-12-25T03:28:29.260Z,23.02
2022-12-25T03:31:11.718Z,22.55
2022-12-25T03:34:02.095Z,24.58
2022-12-25T03:36:35.819Z,25.10
2022-12-25T03:39:27.160Z,25.42
2022-12-25T03:42:16.683Z,26.27
2022-12-25T03:45:02.321Z,24.60
2022-12-25T03:47:37.950Z,27.73
2022-12-25T03:50:32.737Z,25.73
2022-12-25T03:53:20.963Z,24.77
2022-12-25T03:56:08.175Z,25.90
2022-12-25T03:58:56.239Z,26.30
2022-12-25T04:01:42.459Z,26.95
2022-12-25T04:04:28.580Z,26.70
2022-12-25T04:07:14.473Z,27.73
2022-12-25T04:10:00.244Z,26.33
2022-12-25T04:12:46.171Z,27.00
2022-12-25T04:15:32.397Z,28.63
2022-12-25T04:18:18.205Z,28.38
2022-12-25T04:21:04.091Z,27.02
2022-12-25T04:23:49.807Z,25.38
2022-12-25T04:26:35.696Z,28.65
2022-12-25T04:29:21.904Z,25.35
2022-12-25T04:32:07.599Z,25.73
2022-12-25T04:34:53.665Z,26.00
2022-12-25T04:37:20.911Z,26.15
2022-12-25T04:39:48.230Z,25.90
2022-12-25T04:42:16.323Z,27.05
2022-12-25T04:44:43.571Z,27.75
2022-12-25T04:47:11.862Z,25.63
2022-12-25T04:49:39.373Z,26.75
2022-12-25T04:52:06.613Z,24.90
2022-12-25T04:54:35.886Z,25.83
2022-12-25T04:57:03.179Z,24.83
2022-12-25T04:59:30.551Z,23.15
2022-12-25T05:01:57.995Z,25.67
2022-12-25T05:04:25.412Z,23.02
2022-12-25T05:06:52.688Z,23.38
2022-12-25T05:09:20.016Z,22.27
2022-12-25T05:11:47.499Z,21.48
2022-12-25T05:14:14.878Z,21.10
2022-12-25T05:16:45.122Z,20.08
2022-12-25T05:19:12.422Z,21.58
2022-12-25T05:21:39.748Z,21.92
2022-12-25T05:24:07.222Z,20.48
2022-12-25T05:26:34.496Z,21.40
2022-12-25T05:29:01.758Z,21.63
2022-12-25T05:31:29.203Z,20.33
2022-12-25T05:33:56.630Z,18.90
2022-12-25T05:36:24.066Z,20.67
2022-12-25T05:38:51.873Z,18.02
2022-12-25T05:41:19.467Z,18.77
2022-12-25T05:43:46.740Z,18.60
2022-12-25T05:46:14.137Z,18.25
2022-12-25T05:48:41.535Z,18.27
2022-12-25T05:51:12.888Z,19.77
2022-12-25T05:53:41.619Z,19.90
2022-12-25T05:56:09.624Z,17.83
2022-12-25T05:58:38.605Z,17.90
2022-12-25T06:01:11.544Z,17.02
2022-12-25T06:03:39.248Z,16.83
2022-12-25T06:06:07.352Z,18.17
2022-12-25T06:08:34.949Z,15.82
2022-12-25T06:11:09.039Z,16.40
2022-12-25T06:13:36.986Z,17.20
2022-12-25T06:16:05.832Z,17.73
2022-12-25T06:18:35.934Z,17.08
2022-12-25T06:21:06.672Z,17.02
2022-12-25T06:23:34.027Z,15.70
2022-12-25T06:26:03.249Z,17.20
2022-12-25T06:28:30.582Z,16.20
2022-12-25T06:30:57.847Z,15.75
2022-12-25T06:33:25.316Z,15.57
2022-12-25T06:35:52.647Z,17.33
2022-12-25T06:38:19.944Z,15.40
2022-12-25T06:40:47.269Z,15.68
2022-12-25T06:43:14.564Z,15.30
2022-12-25T06:45:41.859Z,16.42
2022-12-25T06:48:09.297Z,15.43
2022-12-25T06:50:37.189Z,14.68
2022-12-25T06:53:04.659Z,17.83
2022-12-25T06:55:31.929Z,17.42
2022-12-25T06:57:59.202Z,15.38
2022-12-25T07:00:26.439Z,16.02
2022-12-25T07:02:53.847Z,14.02
2022-12-25T07:05:21.181Z,14.75
2022-12-25T07:07:48.458Z,15.30
2022-12-25T07:10:15.732Z,17.20
2022-12-25T07:12:43.079Z,16.85
2022-12-25T07:15:10.623Z,16.63
2022-12-25T07:17:37.851Z,16.42
2022-12-25T07:20:05.225Z,17.20
2022-12-25T07:22:32.445Z,16.15
2022-12-25T07:24:59.809Z,16.45
2022-12-25T07:27:27.012Z,17.98
2022-12-25T07:29:54.241Z,18.85
2022-12-25T07:32:21.492Z,16.80
2022-12-25T07:34:48.729Z,18.45
2022-12-25T07:37:16.016Z,18.17
2022-12-25T07:39:43.423Z,18.05
2022-12-25T07:42:10.624Z,19.35
2022-12-25T07:44:38.329Z,18.48
2022-12-25T07:47:05.629Z,17.88
2022-12-25T07:49:32.848Z,19.42
2022-12-25T07:52:00.157Z,16.90
2022-12-25T07:54:27.458Z,18.50
2022-12-25T07:56:54.901Z,17.10
2022-12-25T07:59:22.227Z,18.00
2022-12-25T08:01:50.851Z,16.23
2022-12-25T08:04:18.339Z,18.48
2022-12-25T08:06:45.726Z,15.73
2022-12-25T08:09:13.515Z,15.95
2022-12-25T08:11:41.002Z,15.18
2022-12-25T08:14:09.129Z,18.65
2022-12-25T08:16:39.716Z,16.52
2022-12-25T08:19:07.168Z,18.33
2022-12-25T08:21:34.595Z,18.90
2022-12-25T08:24:03.107Z,18.92
2022-12-25T08:26:30.513Z,18.48
2022-12-25T08:28:57.843Z,18.70
2022-12-25T08:31:26.986Z,18.30
2022-12-25T08:33:55.552Z,17.60
2022-12-25T08:36:23.194Z,17.33
2022-12-25T08:38:50.863Z,19.17
2022-12-25T08:41:18.481Z,20.35
2022-12-25T08:43:45.765Z,20.27
2022-12-25T08:46:13.218Z,17.83
2022-12-25T08:48:42.865Z,16.77
2022-12-25T08:51:14.557Z,16.58
2022-12-25T08:53:45.699Z,16.95
2022-12-25T08:56:16.285Z,17.33
2022-12-25T08:58:43.588Z,15.73
2022-12-25T09:01:11.510Z,17.73
2022-12-25T09:03:38.968Z,18.50
2022-12-25T09:06:07.790Z,19.92
2022-12-25T09:08:35.797Z,19.23
2022-12-25T09:11:04.131Z,15.55
2022-12-25T09:13:31.516Z,12.75
2022-12-25T09:15:59.128Z,13.15
2022-12-25T09:18:26.445Z,14.27
2022-12-25T09:21:04.459Z,13.23
2022-12-25T09:23:32.134Z,11.88
2022-12-25T09:26:00.337Z,13.07
2022-12-25T09:28:27.693Z,11.85
2022-12-25T09:30:56.185Z,12.30
2022-12-25T09:33:24.027Z,12.20
2022-12-25T09:35:58.814Z,11.63
2022-12-25T09:38:26.236Z,12.43
2022-12-25T09:40:59.556Z,11.98
2022-12-25T09:43:27.282Z,11.73
2022-12-25T09:45:54.966Z,12.98
2022-12-25T09:48:22.367Z,12.50
2022-12-25T09:50:49.612Z,11.35
2022-12-25T09:53:20.217Z,11.45
2022-12-25T09:55:52.785Z,11.38
2022-12-25T09:58:20.038Z,10.75
2022-12-25T10:01:08.365Z,12.63
2022-12-25T10:04:05.099Z,11.93
2022-12-25T10:06:48.129Z,11.63
2022-12-25T10:09:15.447Z,13.30
2022-12-25T10:11:42.641Z,12.07
2022-12-25T10:14:19.072Z,11.15
2022-12-25T10:16:52.475Z,12.35
2022-12-25T10:19:22.991Z,13.07
2022-12-25T10:21:52.884Z,11.95
2022-12-25T10:24:26.349Z,12.45
2022-12-25T10:26:55.096Z,12.13
2022-12-25T10:29:22.556Z,12.27
2022-12-25T10:31:50.692Z,11.38
2022-12-25T10:34:18.002Z,12.00
2022-12-25T10:36:46.342Z,12.13
2022-12-25T10:39:24.017Z,11.73
2022-12-25T10:42:00.731Z,12.10
2022-12-25T10:44:27.983Z,12.35
2022-12-25T10:47:00.988Z,12.60
2022-12-25T10:49:36.655Z,12.55
2022-12-25T10:52:04.135Z,11.13
2022-12-25T10:54:33.461Z,13.80
2022-12-25T10:57:01.976Z,13.30
2022-12-25T10:59:30.360Z,12.50
2022-12-25T11:02:04.208Z,12.30
2022-12-25T11:04:34.955Z,13.75
2022-12-25T11:07:06.083Z,13.15
2022-12-25T11:09:33.931Z,14.95
2022-12-25T11:12:01.383Z,12.40
2022-12-25T11:14:29.215Z,13.68
2022-12-25T11:16:56.520Z,14.07
2022-12-25T11:19:28.551Z,14.82
2022-12-25T11:21:57.101Z,15.88
2022-12-25T11:24:26.933Z,13.73
2022-12-25T11:26:55.684Z,15.15
2022-12-25T11:29:22.934Z,16.33
2022-12-25T11:31:51.543Z,15.82
2022-12-25T11:34:29.284Z,14.60
2022-12-25T11:36:56.744Z,13.85
2022-12-25T11:39:31.341Z,13.20
2022-12-25T11:42:01.261Z,14.93
2022-12-25T11:44:28.523Z,14.48
2022-12-25T11:46:56.718Z,13.98
2022-12-25T11:49:24.203Z,14.70
2022-12-25T11:51:54.511Z,15.93
2022-12-25T11:54:30.682Z,15.85
2022-12-25T11:57:00.585Z,18.25
2022-12-25T11:59:30.883Z,16.13
2022-12-25T12:02:09.798Z,15.13
2022-12-25T12:04:43.355Z,14.35
2022-12-25T12:07:24.911Z,13.75
2022-12-25T12:09:52.228Z,12.98
2022-12-25T12:12:23.869Z,13.13
2022-12-25T12:15:20.611Z,13.52
2022-12-25T12:17:47.921Z,14.30
2022-12-25T12:20:28.603Z,13.93
2022-12-25T12:22:55.956Z,14.07
2022-12-25T12:25:23.485Z,13.23
2022-12-25T12:28:04.563Z,13.57
2022-12-25T12:30:38.544Z,13.95
2022-12-25T12:33:07.612Z,14.57
2022-12-25T12:35:39.257Z,14.80
2022-12-25T12:38:17.714Z,14.38
2022-12-25T12:40:52.189Z,14.67
2022-12-25T12:43:38.491Z,15.57
2022-12-25T12:46:06.096Z,14.93
2022-12-25T12:48:39.143Z,16.10
2022-12-25T12:51:08.226Z,17.70
2022-12-25T12:53:35.948Z,16.48
2022-12-25T12:56:12.964Z,15.90
2022-12-25T12:58:46.276Z,15.55
2022-12-25T13:01:25.139Z,14.95
2022-12-25T13:04:11.546Z,16.58
2022-12-25T13:06:44.628Z,14.73
2022-12-25T13:09:22.753Z,15.93
2022-12-25T13:11:50.373Z,15.80
2022-12-25T13:14:19.215Z,16.38
2022-12-25T13:16:47.597Z,17.13
2022-12-25T13:19:17.845Z,17.27
2022-12-25T13:22:02.401Z,18.00
2022-12-25T13:24:31.703Z,16.27
2022-12-25T13:26:59.708Z,16.77
2022-12-25T13:29:31.059Z,18.05
2022-12-25T13:31:59.319Z,16.88
2022-12-25T13:34:31.119Z,16.50
2022-12-25T13:37:06.793Z,17.10
2022-12-25T13:39:34.879Z,19.17
2022-12-25T13:42:05.408Z,15.82
2022-12-25T13:44:43.679Z,16.30
2022-12-25T13:47:18.664Z,19.40
2022-12-25T13:49:46.549Z,18.80
2022-12-25T13:52:15.019Z,18.10
2022-12-25T13:55:01.383Z,22.20
2022-12-25T13:57:39.285Z,19.52
2022-12-25T14:00:08.205Z,23.45
2022-12-25T14:02:37.722Z,19.90
2022-12-25T14:05:22.589Z,22.52
2022-12-25T14:07:56.623Z,31.30
2022-12-25T14:10:25.453Z,21.60
2022-12-25T14:12:54.445Z,23.38
2022-12-25T14:15:23.593Z,20.75
2022-12-25T14:17:52.726Z,26.88
2022-12-25T14:20:25.894Z,26.70
2022-12-25T14:22:54.677Z,51.33
2022-12-25T14:25:23.555Z,29.63
2022-12-25T14:27:51.666Z,25.90
2022-12-25T14:30:19.243Z,29.77
2022-12-25T14:32:51.289Z,23.50
2022-12-25T14:35:23.276Z,26.23
2022-12-25T14:37:54.626Z,26.83
2022-12-25T14:40:24.867Z,28.67
2022-12-25T14:43:15.727Z,28.10
2022-12-25T14:45:43.059Z,30.60
2022-12-25T14:48:24.594Z,23.75
2022-12-25T14:51:04.869Z,35.90
2022-12-25T14:53:38.076Z,22.00
2022-12-25T14:56:05.752Z,24.55
2022-12-25T14:58:35.455Z,25.92
2022-12-25T15:01:04.218Z,24.58
2022-12-25T15:03:33.068Z,27.88
2022-12-25T15:06:01.441Z,20.85
2022-12-25T15:08:29.469Z,38.17
2022-12-25T15:11:00.932Z,37.95
2022-12-25T15:13:29.060Z,32.33
2022-12-25T15:16:10.324Z,25.40
2022-12-25T15:18:45.209Z,27.38
2022-12-25T15:21:20.018Z,26.73
2022-12-25T15:23:47.599Z,24.45
2022-12-25T15:26:15.292Z,55.05
2022-12-25T15:28:42.934Z,27.55
2022-12-25T15:31:30.580Z,37.80
2022-12-25T15:33:59.496Z,38.80
2022-12-25T15:36:27.506Z,27.98
2022-12-25T15:38:55.316Z,27.15
2022-12-25T15:41:47.907Z,34.85
2022-12-25T15:44:15.635Z,28.98
2022-12-25T15:46:43.442Z,26.55
2022-12-25T15:49:14.294Z,28.13
2022-12-25T15:51:42.540Z,29.13
2022-12-25T15:54:10.389Z,25.50
2022-12-25T15:56:42.294Z,29.88
2022-12-25T15:59:10.670Z,29.75
2022-12-25T16:01:38.063Z,27.35
2022-12-25T16:04:05.476Z,25.42
2022-12-25T16:06:32.692Z,32.75
2022-12-25T16:09:00.115Z,36.35
2022-12-25T16:11:27.351Z,36.22
2022-12-25T16:13:54.644Z,31.15
2022-12-25T16:16:23.207Z,30.77
2022-12-25T16:18:50.587Z,31.50
2022-12-25T16:21:19.706Z,28.10
2022-12-25T16:23:47.117Z,27.20
2022-12-25T16:26:14.414Z,28.55
2022-12-25T16:28:41.801Z,31.15
2022-12-25T16:31:09.215Z,29.98
2022-12-25T16:33:36.537Z,31.55
2022-12-25T16:36:03.812Z,29.77
2022-12-25T16:38:31.656Z,30.00
2022-12-25T16:41:00.555Z,29.25
2022-12-25T16:43:28.108Z,28.70
2022-12-25T16:45:57.755Z,33.47
2022-12-25T16:48:25.062Z,29.42
2022-12-25T16:50:52.322Z,28.60
2022-12-25T16:53:19.818Z,30.73
2022-12-25T16:55:47.040Z,28.15
2022-12-25T16:58:14.289Z,30.88
2022-12-25T17:00:47.339Z,26.35
2022-12-25T17:03:16.726Z,28.45
2022-12-25T17:05:44.058Z,27.15
2022-12-25T17:08:11.461Z,26.95
2022-12-25T17:10:39.421Z,26.63
2022-12-25T17:13:06.847Z,27.65
2022-12-25T17:15:34.170Z,26.85
2022-12-25T17:18:01.508Z,31.55
2022-12-25T17:20:28.846Z,26.10
2022-12-25T17:22:57.635Z,24.52
2022-12-25T17:25:24.893Z,26.45
2022-12-25T17:27:52.231Z,28.65
2022-12-25T17:30:19.507Z,30.67
2022-12-25T17:32:47.220Z,33.88
2022-12-25T17:35:14.493Z,31.05
2022-12-25T17:37:42.176Z,29.92
2022-12-25T17:40:09.756Z,29.30
2022-12-25T17:42:37.107Z,32.35
2022-12-25T17:45:04.428Z,37.95
2022-12-25T17:47:31.777Z,42.85
2022-12-25T17:49:59.135Z,29.88
2022-12-25T17:52:26.475Z,33.00
2022-12-25T17:54:53.850Z,30.92
2022-12-25T17:57:21.260Z,30.42
2022-12-25T17:59:49.275Z,31.75
2022-12-25T18:02:48.552Z,34.97
2022-12-25T18:05:15.932Z,41.05
2022-12-25T18:10:28.206Z,32.80
2022-12-25T18:12:55.882Z,40.55
2022-12-25T18:15:23.203Z,33.22
2022-12-25T18:17:50.768Z,32.70
2022-12-25T18:20:18.153Z,43.85
2022-12-25T18:22:45.528Z,42.38
2022-12-25T18:25:12.762Z,45.28
2022-12-25T18:27:40.078Z,36.75
2022-12-25T18:30:07.585Z,31.75
2022-12-25T18:35:18.544Z,28.15
2022-12-25T18:37:48.090Z,23.83
2022-12-25T18:40:15.634Z,26.92
2022-12-25T18:42:43.892Z,28.52
2022-12-25T18:45:12.594Z,27.95
2022-12-25T18:47:40.404Z,30.05
2022-12-25T18:50:08.858Z,32.60
2022-12-25T18:52:48.825Z,34.67
2022-12-25T18:55:18.681Z,173.32
2022-12-25T19:06:02.791Z,37.28
2022-12-25T19:08:30.100Z,44.53
2022-12-25T19:10:57.864Z,30.02
2022-12-25T19:13:25.163Z,31.33
2022-12-25T19:15:52.650Z,31.15
2022-12-25T19:18:20.060Z,35.88
2022-12-25T19:20:48.054Z,33.17
2022-12-25T19:23:17.093Z,31.10
2022-12-25T19:25:44.392Z,34.30
2022-12-25T19:28:11.677Z,33.83
2022-12-25T19:30:39.314Z,32.40
2022-12-25T19:33:09.037Z,37.33
2022-12-25T19:35:41.730Z,34.58
2022-12-25T19:38:09.022Z,35.28
2022-12-25T19:40:39.944Z,33.90
2022-12-25T19:43:08.255Z,31.73
2022-12-25T19:45:35.847Z,35.78
2022-12-25T19:48:03.228Z,36.20
2022-12-25T19:50:32.857Z,30.52
2022-12-25T19:53:00.412Z,42.75
2022-12-25T19:55:27.918Z,37.72
2022-12-25T19:57:59.219Z,35.70
2022-12-25T20:00:27.367Z,51.40
2022-12-25T20:02:54.952Z,39.47
2022-12-25T20:05:22.600Z,39.60
2022-12-25T20:07:49.959Z,42.90
2022-12-25T20:10:17.455Z,40.58
2022-12-25T20:12:44.836Z,39.00
2022-12-25T20:15:12.429Z,39.58
2022-12-25T20:17:39.701Z,40.47
2022-12-25T20:20:07.372Z,39.15
2022-12-25T20:22:34.884Z,39.55
2022-12-25T20:25:03.423Z,39.33
2022-12-25T20:27:30.945Z,42.27
2022-12-25T20:29:58.410Z,44.65
2022-12-25T20:32:25.769Z,41.45
2022-12-25T20:34:53.148Z,39.58
2022-12-25T20:37:20.508Z,41.20
2022-12-25T20:39:47.927Z,44.40
2022-12-25T20:42:15.271Z,41.13
2022-12-25T20:44:44.077Z,41.80
2022-12-25T20:47:12.684Z,43.08
2022-12-25T20:49:39.953Z,44.33
2022-12-25T20:52:07.569Z,46.20
2022-12-25T20:54:34.978Z,43.50
2022-12-25T20:57:02.341Z,48.92
2022-12-25T20:59:35.235Z,50.90
2022-12-25T21:02:04.781Z,51.22
2022-12-25T21:04:33.646Z,50.63
2022-12-25T21:07:01.180Z,44.65
2022-12-25T21:09:28.551Z,50.60
2022-12-25T21:11:55.991Z,54.78
2022-12-25T21:14:23.397Z,91.90
2022-12-25T21:16:51.139Z,44.28
2022-12-25T21:19:18.613Z,38.38
2022-12-25T21:21:46.080Z,35.67
2022-12-25T21:24:13.816Z,38.13
2022-12-25T21:26:47.636Z,37.85
2022-12-25T21:29:17.763Z,41.47
2022-12-25T21:32:03.696Z,36.72
2022-12-25T21:34:31.123Z,40.28
2022-12-25T21:36:58.407Z,35.03
2022-12-25T21:39:26.030Z,37.42
2022-12-25T21:41:53.971Z,32.63
2022-12-25T21:44:21.418Z,36.20
2022-12-25T21:46:49.323Z,35.00
2022-12-25T21:49:36.677Z,33.17
2022-12-25T21:52:07.236Z,32.17
2022-12-25T21:54:34.974Z,36.03
2022-12-25T21:57:02.355Z,32.55
2022-12-25T21:59:29.602Z,34.22
2022-12-25T22:01:56.992Z,39.88
2022-12-25T22:04:24.506Z,34.17
2022-12-25T22:07:10.515Z,37.90
2022-12-25T22:09:38.018Z,39.05
2022-12-25T22:12:28.539Z,37.15
2022-12-25T22:15:09.475Z,34.17
2022-12-25T22:17:56.935Z,31.85
2022-12-25T22:20:27.041Z,33.50
2022-12-25T22:22:54.843Z,31.27
2022-12-25T22:25:22.317Z,31.40
2022-12-25T22:27:50.531Z,31.95
2022-12-25T22:30:19.250Z,31.60
2022-12-25T22:32:46.875Z,31.92
2022-12-25T22:35:16.009Z,29.88
2022-12-25T22:37:43.831Z,30.08
2022-12-25T22:40:12.468Z,30.33
2022-12-25T22:45:08.537Z,26.63
2022-12-25T22:47:36.024Z,30.55
2022-12-25T22:50:04.433Z,28.90
2022-12-25T22:52:31.889Z,33.57
2022-12-25T22:54:59.123Z,31.70
2022-12-25T22:57:26.598Z,32.60
2022-12-25T22:59:54.166Z,30.35
2022-12-25T23:02:21.781Z,31.63
2022-12-25T23:04:49.317Z,29.23
2022-12-25T23:07:17.147Z,32.15
2022-12-25T23:09:44.706Z,30.30
2022-12-25T23:12:32.056Z,31.30
2022-12-25T23:14:59.628Z,29.98
2022-12-25T23:17:45.668Z,31.45
2022-12-25T23:20:33.383Z,30.02
2022-12-25T23:23:19.465Z,27.10
2022-12-25T23:26:05.641Z,28.10
2022-12-25T23:28:51.756Z,29.60
2022-12-25T23:31:23.366Z,28.38
2022-12-25T23:33:50.747Z,27.67
2022-12-25T23:36:17.986Z,29.85
2022-12-25T23:38:45.315Z,28.63
2022-12-25T23:41:12.572Z,29.50
2022-12-25T23:43:39.935Z,27.80
2022-12-25T23:46:07.269Z,29.02
2022-12-25T23:48:36.381Z,28.80
2022-12-25T23:51:06.630Z,26.95
2022-12-25T23:53:36.748Z,28.65
2022-12-25T23:56:04.614Z,27.35
2022-12-25T23:58:33.878Z,28.33
